Racecast

Raegan Spady

East End Lightning T&F Youth Development (VA) · 8 · Compare head to head

Athlete rating
Races 48
Seasons 3 2024 — 2026
Speed rating — all races

Track & Field

TF speed rating

2026 TF

East End Lightning T&F Youth Development (VA) · Grade 8

Date Meet Event Result Place Rating Difficulty PR/SR Flags
2026-06-20 Legacy Juneteenth Track Showcase javelin 8.82m -0.027
2026-06-20 Legacy Juneteenth Track Showcase 100m 16.16 18th · 1st on team -0.027 ★PR SR
2026-06-20 Legacy Juneteenth Track Showcase 200m 37.5 17th · 2nd on team -0.027 ★PR SR
2026-06-18 James Bracey 804 Run Jump Throw Series #4 javelin 8.94m -0.019
2026-06-18 James Bracey 804 Run Jump Throw Series #4 100m 17.97 4th · 3rd on team -0.019
2026-06-18 James Bracey 804 Run Jump Throw Series #4 400m 1:34.89 4th · 3rd on team -0.019 SR
2026-05-24 HR Hurricanes CAT 5 Invite 200m 38.4 27th · 3rd on team -0.035
2026-05-24 HR Hurricanes CAT 5 Invite 100m 17.9 38th · 3rd on team -0.035
2026-05-09 VA "Legends" T & F Youth Invite lj 2.34m -0.033
2026-05-09 VA "Legends" T & F Youth Invite 100m 17.89 40th · 12th on team -0.033 SR
2026-05-09 VA "Legends" T & F Youth Invite 200m 37.86 43rd · 14th on team -0.033 SR

2025 TF

East End Lightning T&F Youth Development (VA) · Grade 7

Date Meet Event Result Place Rating Difficulty PR/SR Flags
2025-07-12 Cannonball Cooper Invite 100m 18.97 25th · 4th on team -0.027
2025-06-14 AAU Virginia District Qualifier (Southern) 100m 17.82 29th · 2nd on team -0.041
2025-06-14 AAU Virginia District Qualifier (Southern) 200m 38.17 29th · 2nd on team -0.041
2025-05-31 Va Beach Flames Invite 100m 18.07 25th · 2nd on team -0.023
2025-05-31 Va Beach Flames Invite 200m 38.53 14th · 2nd on team -0.023
2025-05-31 Va Beach Flames Invite 400m 1:35.81 18th · 2nd on team -0.023
2025-05-25 HR Hurricanes CAT 5 Invite 100m 17.48 17th · 2nd on team -0.035
2025-05-25 HR Hurricanes CAT 5 Invite 400m 1:28.67 6th · 1st on team -0.035 ★PR SR
2025-05-25 HR Hurricanes CAT 5 Invite 200m 37.69 9th · 1st on team -0.035
2025-05-17 LIGHTNING RELAYS 200m 37.53 19th · 1st on team -0.042 PR SR
2025-05-17 LIGHTNING RELAYS 100m 17.53 28th · 4th on team -0.042
2025-05-10 Legends Invitational hosted by Eastend Lightning 100m 17.22 16th · 4th on team -0.030 PR SR
2025-05-10 Legends Invitational hosted by Eastend Lightning 200m 38.06 13th · 3rd on team -0.030 SR
2025-05-04 Queen Harrison Youth Invite 100m 17.89 9th · 2nd on team -0.033 SR
2025-05-04 Queen Harrison Youth Invite 200m 38.38 7th · 2nd on team -0.033
2025-05-04 Queen Harrison Youth Invite 50m 9.46 5th · 2nd on team -0.033 SR
2025-04-27 TRACK 757 Classic 100m 18.28 27th · 1st on team -0.029 SR
2025-04-27 TRACK 757 Classic 400m 1:35.45 8th · 1st on team -0.029 SR
2025-04-27 TRACK 757 Classic 200m 38.11 9th · 1st on team -0.029 SR

2024 TF

East End Lightning T&F Youth Development (VA) · Grade 6

Date Meet Event Result Place Rating Difficulty PR/SR Flags
2024-07-13 Cannonball Cooper Invite 200m 38.91 13th · 5th on team -0.024
2024-07-13 Cannonball Cooper Invite 100m 17.87 16th · 3rd on team -0.024
2024-07-13 Cannonball Cooper Invite 50m 8.39 5th · 2nd on team -0.024
2024-06-22 Superior Elite Invitational 50m 8.21 2nd · 1st on team -0.033 ★PR SR
2024-06-22 Superior Elite Invitational 400m 1:30.37 4th · 1st on team -0.033 PR SR
2024-06-22 Superior Elite Invitational 100m 18.23 5th · 1st on team -0.033
2024-06-08 AAU Virginia South District Qualifier javelin 9-06 -0.029
2024-06-08 AAU Virginia South District Qualifier 200m 37.77 19th · 1st on team -0.029 PR SR
2024-06-08 AAU Virginia South District Qualifier 100m 17.85 22nd · 3rd on team -0.029 PR SR
2024-06-01 VB Flames Invitational javelin 13-08 -0.023
2024-06-01 VB Flames Invitational 200m 39.71 20th · 4th on team -0.023 PR SR
2024-06-01 VB Flames Invitational 100m 18.33 22nd · 1st on team -0.023 PR SR
2024-05-11 2024 EE Lightning "Legends" Invite javelin 13-08 -0.043
2024-05-11 2024 EE Lightning "Legends" Invite 50m 9.71 2nd · 1st on team -0.043
2024-05-11 2024 EE Lightning "Legends" Invite 400m 1:35.18 9th · 3rd on team -0.043 PR SR
2024-05-05 Queen Harrison Invite 100m 19.26 12th · 6th on team -0.033 PR SR
2024-05-05 Queen Harrison Invite 200m 41.86 8th · 5th on team -0.033 PR SR
2024-05-05 Queen Harrison Invite 50m 9.68 8th · 3rd on team -0.033 PR SR